Time,TemperatureF,DewpointF,PressureIn,WindDirection,WindDirectionDegrees,WindSpeedMPH,WindSpeedGustMPH,Humidity,HourlyPrecipIn,Conditions,Clouds,dailyrainin,SolarRadiationWatts/m^2,SoftwareType,DateUTC
2014-01-22 00:04:00,5.9,3.1,29.88,North,350,8.0,8.0,88,0.00,,,0.00,0,Wunderground v.1.15,2014-01-22 05:04:00,
2014-01-22 00:09:00,5.9,3.1,29.88,NW,322,8.0,8.0,88,0.00,,,0.00,0,Wunderground v.1.15,2014-01-22 05:09:00,
2014-01-22 00:14:00,5.8,3.0,29.87,NNW,336,8.0,12.0,88,0.00,,,0.00,0,Wunderground v.1.15,2014-01-22 05:14:00,
2014-01-22 00:19:00,5.8,2.8,29.86,NNW,329,8.0,12.0,87,0.00,,,0.00,0,Wunderground v.1.15,2014-01-22 05:19:00,
2014-01-22 00:24:00,5.7,2.7,29.86,NNW,335,9.0,9.0,87,0.00,,,0.00,0,Wunderground v.1.15,2014-01-22 05:24:00,
2014-01-22 00:29:00,5.7,2.7,29.86,NW,326,8.0,10.0,87,0.00,,,0.00,0,Wunderground v.1.15,2014-01-22 05:29:00,
2014-01-22 00:39:00,5.6,2.3,29.85,North,349,10.0,10.0,86,0.00,,,0.00,0,Wunderground v.1.15,2014-01-22 05:39:00,
2014-01-22 00:44:00,5.6,2.3,29.86,North,5,10.0,11.0,86,0.00,,,0.00,0,Wunderground v.1.15,2014-01-22 05:44:00,
2014-01-22 00:54:00,5.5,2.2,29.86,NNW,329,8.0,10.0,86,0.00,,,0.00,0,Wunderground v.1.15,2014-01-22 05:54:00,
2014-01-22 00:59:00,5.5,2.2,29.85,North,355,8.0,10.0,86,0.00,,,0.00,0,Wunderground v.1.15,2014-01-22 05:59:00,
2014-01-22 01:04:00,5.5,2.2,29.86,North,5,7.0,7.0,86,0.00,,,0.00,0,Wunderground v.1.15,2014-01-22 06:04:00,
2014-01-22 01:14:00,5.4,1.9,29.85,North,355,8.0,10.0,85,0.00,,,0.00,0,Wunderground v.1.15,2014-01-22 06:14:00,
2014-01-22 01:19:00,5.3,1.8,29.85,North,349,9.0,10.0,85,0.00,,,0.00,0,Wunderground v.1.15,2014-01-22 06:19:00,
2014-01-22 01:29:00,5.1,1.3,29.85,NNE,30,9.0,11.0,84,0.00,,,0.00,0,Wunderground v.1.15,2014-01-22 06:29:00,
2014-01-22 01:34:00,5.0,1.2,29.85,NW,317,9.0,9.0,84,0.00,,,0.00,0,Wunderground v.1.15,2014-01-22 06:34:00,
2014-01-22 01:44:00,4.9,1.1,29.85,NNW,343,9.0,9.0,84,0.00,,,0.00,0,Wunderground v.1.15,2014-01-22 06:44:00,
2014-01-22 01:54:00,4.7,0.9,29.85,NNW,334,9.0,9.0,84,0.00,,,0.00,0,Wunderground v.1.15,2014-01-22 06:54:00,
2014-01-22 01:59:00,4.6,0.6,29.85,NNW,341,9.0,9.0,83,0.00,,,0.00,0,Wunderground v.1.15,2014-01-22 06:59:00,
2014-01-22 02:09:00,4.5,0.5,29.85,NNW,333,8.0,9.0,83,0.00,,,0.00,0,Wunderground v.1.15,2014-01-22 07:09:00,
2014-01-22 02:14:00,4.4,0.4,29.85,NNW,336,8.0,8.0,83,0.00,,,0.00,0,Wunderground v.1.15,2014-01-22 07:14:00,
2014-01-22 02:19:00,4.4,0.4,29.85,NNW,336,8.0,8.0,83,0.00,,,0.00,0,Wunderground v.1.15,2014-01-22 07:19:00,
2014-01-22 02:24:00,4.3,0.0,29.85,NNW,331,8.0,8.0,82,0.00,,,0.00,0,Wunderground v.1.15,2014-01-22 07:24:00,
2014-01-22 02:34:00,4.1,-0.2,29.85,NNW,337,8.0,10.0,82,0.00,,,0.00,0,Wunderground v.1.15,2014-01-22 07:34:00,
2014-01-22 02:39:00,4.0,-0.3,29.85,North,11,8.0,10.0,82,0.00,,,0.00,0,Wunderground v.1.15,2014-01-22 07:39:00,
2014-01-22 02:44:00,3.7,-0.6,29.85,NW,304,9.0,9.0,82,0.00,,,0.00,0,Wunderground v.1.15,2014-01-22 07:44:00,
2014-01-22 02:54:00,3.3,-1.0,29.84,NNW,348,8.0,8.0,82,0.00,,,0.00,0,Wunderground v.1.15,2014-01-22 07:54:00,
2014-01-22 03:04:00,3.0,-1.3,29.84,NNW,337,8.0,8.0,82,0.00,,,0.00,0,Wunderground v.1.15,2014-01-22 08:04:00,
2014-01-22 03:09:00,2.8,-1.4,29.84,NNW,342,8.0,8.0,82,0.00,,,0.00,0,Wunderground v.1.15,2014-01-22 08:09:00,
2014-01-22 03:19:00,2.6,-1.6,29.84,NW,323,8.0,8.0,82,0.00,,,0.00,0,Wunderground v.1.15,2014-01-22 08:19:00,
2014-01-22 03:24:00,2.4,-2.1,29.83,NW,322,9.0,9.0,81,0.00,,,0.00,0,Wunderground v.1.15,2014-01-22 08:24:00,
2014-01-22 03:29:00,2.2,-2.3,29.83,North,5,9.0,16.0,81,0.00,,,0.00,0,Wunderground v.1.15,2014-01-22 08:29:00,
2014-01-22 03:34:00,2.0,-2.5,29.83,NNW,329,10.0,10.0,81,0.00,,,0.00,0,Wunderground v.1.15,2014-01-22 08:34:00,
2014-01-22 03:44:00,1.5,-3.0,29.82,NNW,347,10.0,10.0,81,0.00,,,0.00,0,Wunderground v.1.15,2014-01-22 08:44:00,
2014-01-22 03:49:00,1.3,-3.2,29.82,NNW,346,10.0,10.0,81,0.00,,,0.00,0,Wunderground v.1.15,2014-01-22 08:49:00,
2014-01-22 03:59:00,0.9,-3.6,29.82,North,349,10.0,10.0,81,0.00,,,0.00,0,Wunderground v.1.15,2014-01-22 08:59:00,
2014-01-22 04:04:00,0.8,-3.9,29.83,NNW,329,10.0,12.0,80,0.00,,,0.00,0,Wunderground v.1.15,2014-01-22 09:04:00,
2014-01-22 04:09:00,0.6,-4.1,29.83,North,355,10.0,12.0,80,0.00,,,0.00,0,Wunderground v.1.15,2014-01-22 09:09:00,
2014-01-22 04:14:00,0.5,-4.2,29.83,NNW,331,9.0,9.0,80,0.00,,,0.00,0,Wunderground v.1.15,2014-01-22 09:14:00,
2014-01-22 04:19:00,0.4,-4.3,29.83,North,355,8.0,9.0,80,0.00,,,0.00,0,Wunderground v.1.15,2014-01-22 09:19:00,
2014-01-22 04:29:00,0.2,-4.8,29.83,NNW,327,10.0,10.0,79,0.00,,,0.00,0,Wunderground v.1.15,2014-01-22 09:29:00,
2014-01-22 04:39:00,-0.1,-5.1,29.83,NNW,344,9.0,9.0,79,0.00,,,0.00,0,Wunderground v.1.15,2014-01-22 09:39:00,
2014-01-22 04:44:00,-0.1,-5.1,29.84,North,355,8.0,11.0,79,0.00,,,0.00,0,Wunderground v.1.15,2014-01-22 09:44:00,
2014-01-22 04:49:00,-0.3,-5.3,29.84,NNW,347,8.0,11.0,79,0.00,,,0.00,0,Wunderground v.1.15,2014-01-22 09:49:00,
2014-01-22 04:54:00,-0.4,-5.4,29.84,NW,317,8.0,8.0,79,0.00,,,0.00,0,Wunderground v.1.15,2014-01-22 09:54:00,
2014-01-22 05:04:00,-0.6,-5.6,29.84,NW,320,7.0,8.0,79,0.00,,,0.00,0,Wunderground v.1.15,2014-01-22 10:04:00,
2014-01-22 05:09:00,-0.7,-5.7,29.83,NNW,337,7.0,8.0,79,0.00,,,0.00,0,Wunderground v.1.15,2014-01-22 10:09:00,
2014-01-22 05:19:00,-1.1,-6.0,29.85,North,349,7.0,9.0,79,0.00,,,0.00,0,Wunderground v.1.15,2014-01-22 10:19:00,
2014-01-22 05:24:00,-1.4,-6.3,29.85,NW,325,7.0,9.0,79,0.00,,,0.00,0,Wunderground v.1.15,2014-01-22 10:24:00,
2014-01-22 05:34:00,-1.9,-6.8,29.84,NNW,328,9.0,10.0,79,0.00,,,0.00,0,Wunderground v.1.15,2014-01-22 10:34:00,
2014-01-22 05:39:00,-2.1,-7.0,29.83,NW,323,10.0,10.0,79,0.00,,,0.00,0,Wunderground v.1.15,2014-01-22 10:39:00,
2014-01-22 05:44:00,-2.2,-7.1,29.83,NNW,330,10.0,10.0,79,0.00,,,0.00,0,Wunderground v.1.15,2014-01-22 10:44:00,
2014-01-22 05:49:00,-2.4,-7.3,29.83,NNW,332,10.0,12.0,79,0.00,,,0.00,0,Wunderground v.1.15,2014-01-22 10:49:00,
2014-01-22 05:59:00,-2.7,-7.6,29.82,NW,319,10.0,15.0,79,0.00,,,0.00,0,Wunderground v.1.15,2014-01-22 10:59:00,
2014-01-22 06:04:00,-2.8,-7.7,29.83,NNW,338,9.0,9.0,79,0.00,,,0.00,0,Wunderground v.1.15,2014-01-22 11:04:00,
2014-01-22 06:14:00,-3.0,-7.9,29.83,NNW,339,10.0,10.0,79,0.00,,,0.00,0,Wunderground v.1.15,2014-01-22 11:14:00,
2014-01-22 06:24:00,-3.2,-8.1,29.84,NW,323,10.0,10.0,79,0.00,,,0.00,0,Wunderground v.1.15,2014-01-22 11:24:00,
2014-01-22 06:34:00,-3.6,-8.5,29.83,North,360,9.0,11.0,79,0.00,,,0.00,0,Wunderground v.1.15,2014-01-22 11:34:00,
2014-01-22 06:39:00,-3.9,-8.8,29.83,NNW,334,8.0,11.0,79,0.00,,,0.00,0,Wunderground v.1.15,2014-01-22 11:39:00,
2014-01-22 06:44:00,-4.1,-9.0,29.83,NW,317,8.0,8.0,79,0.00,,,0.00,0,Wunderground v.1.15,2014-01-22 11:44:00,
2014-01-22 06:54:00,-4.5,-9.4,29.82,NW,324,9.0,9.0,79,0.00,,,0.00,0,Wunderground v.1.15,2014-01-22 11:54:00,
2014-01-22 06:59:00,-4.6,-9.5,29.83,NNW,336,9.0,9.0,79,0.00,,,0.00,0,Wunderground v.1.15,2014-01-22 11:59:00,
2014-01-22 07:09:00,-4.8,-9.7,29.83,NNW,344,9.0,9.0,79,0.00,,,0.00,0,Wunderground v.1.15,2014-01-22 12:09:00,
2014-01-22 07:14:00,-4.9,-9.7,29.83,NNW,342,10.0,11.0,79,0.00,,,0.00,0,Wunderground v.1.15,2014-01-22 12:14:00,
2014-01-22 07:19:00,-5.0,-9.8,29.83,NW,312,10.0,12.0,79,0.00,,,0.00,0,Wunderground v.1.15,2014-01-22 12:19:00,
2014-01-22 07:24:00,-5.2,-10.0,29.83,NW,320,9.0,9.0,79,0.00,,,0.00,5,Wunderground v.1.15,2014-01-22 12:24:00,
2014-01-22 07:29:00,-5.2,-10.0,29.83,NNW,346,10.0,10.0,79,0.00,,,0.00,7,Wunderground v.1.15,2014-01-22 12:29:00,
2014-01-22 07:39:00,-5.4,-10.2,29.83,NNW,348,10.0,11.0,79,0.00,,,0.00,12,Wunderground v.1.15,2014-01-22 12:39:00,
2014-01-22 07:44:00,-5.5,-10.3,29.82,NNW,336,10.0,10.0,79,0.00,,,0.00,16,Wunderground v.1.15,2014-01-22 12:44:00,
2014-01-22 07:54:00,-5.6,-10.4,29.82,NNW,331,11.0,11.0,79,0.00,,,0.00,19,Wunderground v.1.15,2014-01-22 12:54:00,
2014-01-22 07:59:00,-5.6,-10.4,29.83,NNW,338,10.0,11.0,79,0.00,,,0.00,18,Wunderground v.1.15,2014-01-22 12:59:00,
2014-01-22 08:04:00,-5.5,-10.3,29.82,NNW,335,10.0,10.0,79,0.00,,,0.00,21,Wunderground v.1.15,2014-01-22 13:04:00,
2014-01-22 08:14:00,-5.4,-10.5,29.82,North,349,10.0,12.0,78,0.00,,,0.00,28,Wunderground v.1.15,2014-01-22 13:14:00,
2014-01-22 08:19:00,-5.3,-10.4,29.83,NNW,333,10.0,12.0,78,0.00,,,0.00,28,Wunderground v.1.15,2014-01-22 13:19:00,
2014-01-22 08:29:00,-5.0,-10.1,29.83,NW,326,10.0,10.0,78,0.00,,,0.00,53,Wunderground v.1.15,2014-01-22 13:29:00,
2014-01-22 08:34:00,-4.7,-9.8,29.83,NNW,340,10.0,14.0,78,0.00,,,0.00,84,Wunderground v.1.15,2014-01-22 13:34:00,
2014-01-22 08:39:00,-4.3,-9.4,29.83,North,360,10.0,14.0,78,0.00,,,0.00,95,Wunderground v.1.15,2014-01-22 13:39:00,
2014-01-22 08:44:00,-3.8,-9.2,29.82,North,355,9.0,9.0,77,0.00,,,0.00,100,Wunderground v.1.15,2014-01-22 13:44:00,
2014-01-22 08:54:00,-2.8,-8.5,29.82,NNE,13,10.0,10.0,76,0.00,,,0.00,146,Wunderground v.1.15,2014-01-22 13:54:00,
2014-01-22 08:59:00,-2.3,-8.3,29.82,North,355,10.0,11.0,75,0.00,,,0.00,158,Wunderground v.1.15,2014-01-22 13:59:00,
2014-01-22 09:04:00,-1.8,-7.8,29.82,NNW,334,9.0,9.0,75,0.00,,,0.00,171,Wunderground v.1.15,2014-01-22 14:04:00,
2014-01-22 09:09:00,-1.3,-7.6,29.82,WNW,301,8.0,11.0,74,0.00,,,0.00,178,Wunderground v.1.15,2014-01-22 14:09:00,
2014-01-22 09:19:00,-0.9,-7.5,29.82,North,349,10.0,13.0,73,0.00,,,0.00,274,Wunderground v.1.15,2014-01-22 14:19:00,
2014-01-22 09:24:00,-0.7,-7.3,29.83,NNW,345,10.0,10.0,73,0.00,,,0.00,285,Wunderground v.1.15,2014-01-22 14:24:00,
2014-01-22 09:34:00,-0.2,-7.1,29.82,North,349,10.0,12.0,72,0.00,,,0.00,304,Wunderground v.1.15,2014-01-22 14:34:00,
2014-01-22 09:39:00,0.0,-6.9,29.82,NNW,338,10.0,12.0,72,0.00,,,0.00,316,Wunderground v.1.15,2014-01-22 14:39:00,
2014-01-22 09:49:00,0.2,-7.0,29.82,NNW,334,11.0,11.0,71,0.00,,,0.00,338,Wunderground v.1.15,2014-01-22 14:49:00,
2014-01-22 09:54:00,0.2,-7.0,29.82,NNW,329,11.0,14.0,71,0.00,,,0.00,348,Wunderground v.1.15,2014-01-22 14:54:00,
2014-01-22 09:59:00,0.4,-6.8,29.81,North,360,11.0,14.0,71,0.00,,,0.00,359,Wunderground v.1.15,2014-01-22 14:59:00,
2014-01-22 10:09:00,0.5,-6.7,29.81,NW,314,11.0,15.0,71,0.00,,,0.00,378,Wunderground v.1.15,2014-01-22 15:09:00,
2014-01-22 10:14:00,0.7,-6.5,29.81,NNW,338,10.0,10.0,71,0.00,,,0.00,388,Wunderground v.1.15,2014-01-22 15:14:00,
2014-01-22 10:24:00,1.3,-6.2,29.80,North,9,10.0,10.0,70,0.00,,,0.00,406,Wunderground v.1.15,2014-01-22 15:24:00,
2014-01-22 10:29:00,1.5,-6.0,29.80,NNW,341,11.0,13.0,70,0.00,,,0.00,415,Wunderground v.1.15,2014-01-22 15:29:00,
2014-01-22 10:34:00,1.5,-6.3,29.80,NW,323,12.0,13.0,69,0.00,,,0.00,422,Wunderground v.1.15,2014-01-22 15:34:00,
2014-01-22 10:39:00,1.5,-6.3,29.80,NW,323,12.0,13.0,69,0.00,,,0.00,429,Wunderground v.1.15,2014-01-22 15:39:00,
2014-01-22 10:44:00,1.6,-6.2,29.81,NNW,333,12.0,12.0,69,0.00,,,0.00,436,Wunderground v.1.15,2014-01-22 15:44:00,
2014-01-22 10:54:00,2.1,-5.7,29.80,North,5,10.0,16.0,69,0.00,,,0.00,443,Wunderground v.1.15,2014-01-22 15:54:00,
2014-01-22 10:59:00,1.9,-6.2,29.80,North,350,11.0,16.0,68,0.00,,,0.00,452,Wunderground v.1.15,2014-01-22 15:59:00,
2014-01-22 11:04:00,2.2,-6.0,29.80,NNW,342,11.0,12.0,68,0.00,,,0.00,457,Wunderground v.1.15,2014-01-22 16:04:00,
2014-01-22 11:14:00,2.4,-5.8,29.79,NNW,336,11.0,11.0,68,0.00,,,0.00,466,Wunderground v.1.15,2014-01-22 16:14:00,
2014-01-22 11:19:00,2.7,-5.5,29.79,NW,308,11.0,13.0,68,0.00,,,0.00,471,Wunderground v.1.15,2014-01-22 16:19:00,
2014-01-22 11:29:00,3.6,-4.6,29.79,North,349,8.0,11.0,68,0.00,,,0.00,478,Wunderground v.1.15,2014-01-22 16:29:00,
2014-01-22 11:39:00,4.0,-4.8,29.79,NNW,333,9.0,12.0,66,0.00,,,0.00,483,Wunderground v.1.15,2014-01-22 16:39:00,
2014-01-22 11:44:00,4.1,-4.8,29.78,WNW,288,9.0,9.0,66,0.00,,,0.00,485,Wunderground v.1.15,2014-01-22 16:44:00,
2014-01-22 11:49:00,4.2,-4.7,29.78,NNW,342,11.0,13.0,66,0.00,,,0.00,487,Wunderground v.1.15,2014-01-22 16:49:00,
2014-01-22 11:59:00,4.9,-3.7,29.78,NNW,333,9.0,10.0,67,0.00,,,0.00,489,Wunderground v.1.15,2014-01-22 16:59:00,
2014-01-22 12:09:00,5.4,-3.8,29.79,NNW,338,9.0,16.0,65,0.00,,,0.00,489,Wunderground v.1.15,2014-01-22 17:09:00,
2014-01-22 12:14:00,5.1,-4.4,29.79,NNE,26,11.0,11.0,64,0.00,,,0.00,489,Wunderground v.1.15,2014-01-22 17:14:00,
2014-01-22 12:19:00,5.0,-4.2,29.79,North,350,11.0,11.0,65,0.00,,,0.00,487,Wunderground v.1.15,2014-01-22 17:19:00,
2014-01-22 12:24:00,5.4,-3.8,29.78,North,360,10.0,11.0,65,0.00,,,0.00,487,Wunderground v.1.15,2014-01-22 17:24:00,
2014-01-22 12:34:00,6.0,-3.6,29.79,North,10,8.0,11.0,64,0.00,,,0.00,483,Wunderground v.1.15,2014-01-22 17:34:00,
2014-01-22 12:39:00,6.2,-3.4,29.78,North,355,8.0,11.0,64,0.00,,,0.00,478,Wunderground v.1.15,2014-01-22 17:39:00,
2014-01-22 12:44:00,6.2,-3.7,29.78,WNW,300,9.0,10.0,63,0.00,,,0.00,478,Wunderground v.1.15,2014-01-22 17:44:00,
2014-01-22 12:54:00,5.9,-3.7,29.78,North,360,9.0,9.0,64,0.00,,,0.00,471,Wunderground v.1.15,2014-01-22 17:54:00,
2014-01-22 12:59:00,6.0,-3.6,29.78,NNW,330,8.0,9.0,64,0.00,,,0.00,371,Wunderground v.1.15,2014-01-22 17:59:00,
2014-01-22 13:09:00,6.2,-3.4,29.79,North,355,7.0,8.0,64,0.00,,,0.00,283,Wunderground v.1.15,2014-01-22 18:09:00,
2014-01-22 13:14:00,5.8,-4.1,29.80,NNW,339,8.0,16.0,63,0.00,,,0.00,258,Wunderground v.1.15,2014-01-22 18:14:00,
2014-01-22 13:19:00,5.5,-4.4,29.79,North,355,9.0,16.0,63,0.00,,,0.00,281,Wunderground v.1.15,2014-01-22 18:19:00,
2014-01-22 13:29:00,5.1,-4.4,29.80,North,360,9.0,14.0,64,0.00,,,0.00,237,Wunderground v.1.15,2014-01-22 18:29:00,
2014-01-22 13:34:00,5.1,-4.1,29.80,North,5,9.0,11.0,65,0.00,,,0.00,267,Wunderground v.1.15,2014-01-22 18:34:00,
2014-01-22 13:44:00,5.4,-4.2,29.81,NNW,345,8.0,9.0,64,0.00,,,0.00,197,Wunderground v.1.15,2014-01-22 18:44:00,
2014-01-22 13:49:00,5.2,-4.3,29.81,NNW,339,9.0,9.0,64,0.00,,,0.00,169,Wunderground v.1.15,2014-01-22 18:49:00,
2014-01-22 13:59:00,5.1,-4.4,29.81,North,360,8.0,10.0,64,0.00,,,0.00,77,Wunderground v.1.15,2014-01-22 18:59:00,
2014-01-22 14:04:00,4.9,-4.6,29.82,NNE,29,10.0,10.0,64,0.00,,,0.00,72,Wunderground v.1.15,2014-01-22 19:04:00,
2014-01-22 14:09:00,4.8,-4.4,29.82,NNW,338,9.0,14.0,65,0.00,,,0.00,72,Wunderground v.1.15,2014-01-22 19:09:00,
2014-01-22 14:14:00,4.6,-4.9,29.82,North,5,9.0,9.0,64,0.00,,,0.00,32,Wunderground v.1.15,2014-01-22 19:14:00,
2014-01-22 14:24:00,4.7,-4.5,29.83,NNE,26,7.0,10.0,65,0.00,,,0.00,42,Wunderground v.1.15,2014-01-22 19:24:00,
2014-01-22 14:29:00,4.7,-4.5,29.83,North,5,7.0,10.0,65,0.00,,,0.00,107,Wunderground v.1.15,2014-01-22 19:29:00,
2014-01-22 14:39:00,4.5,-4.7,29.83,NW,307,9.0,9.0,65,0.00,,,0.00,69,Wunderground v.1.15,2014-01-22 19:39:00,
2014-01-22 14:44:00,4.5,-4.7,29.84,North,355,8.0,8.0,65,0.00,,,0.00,74,Wunderground v.1.15,2014-01-22 19:44:00,
2014-01-22 14:49:00,4.5,-4.7,29.84,North,355,7.0,9.0,65,0.00,,,0.00,33,Wunderground v.1.15,2014-01-22 19:49:00,
2014-01-22 14:59:00,4.3,-4.9,29.84,NNW,344,10.0,10.0,65,0.00,,,0.00,39,Wunderground v.1.15,2014-01-22 19:59:00,
2014-01-22 15:09:00,4.4,-4.5,29.85,North,351,8.0,9.0,66,0.00,,,0.00,40,Wunderground v.1.15,2014-01-22 20:09:00,
2014-01-22 15:14:00,4.3,-4.9,29.85,NW,318,9.0,16.0,65,0.00,,,0.00,32,Wunderground v.1.15,2014-01-22 20:14:00,
2014-01-22 15:24:00,4.3,-4.9,29.85,NNW,342,9.0,9.0,65,0.00,,,0.00,32,Wunderground v.1.15,2014-01-22 20:24:00,
2014-01-22 15:29:00,4.4,-4.8,29.85,North,349,10.0,12.0,65,0.00,,,0.00,25,Wunderground v.1.15,2014-01-22 20:29:00,
2014-01-22 15:34:00,4.4,-4.5,29.85,NW,322,9.0,9.0,66,0.00,,,0.00,26,Wunderground v.1.15,2014-01-22 20:34:00,
2014-01-22 15:44:00,4.4,-4.5,29.85,NNW,335,7.0,7.0,66,0.00,,,0.00,21,Wunderground v.1.15,2014-01-22 20:44:00,
2014-01-22 15:49:00,4.4,-4.5,29.86,North,350,8.0,8.0,66,0.00,,,0.00,19,Wunderground v.1.15,2014-01-22 20:49:00,
2014-01-22 15:59:00,4.4,-4.5,29.86,NNE,22,7.0,8.0,66,0.00,,,0.00,18,Wunderground v.1.15,2014-01-22 20:59:00,
2014-01-22 16:04:00,4.4,-4.5,29.87,North,351,8.0,8.0,66,0.00,,,0.00,18,Wunderground v.1.15,2014-01-22 21:04:00,
2014-01-22 16:09:00,4.4,-4.5,29.87,North,355,8.0,8.0,66,0.00,,,0.00,16,Wunderground v.1.15,2014-01-22 21:09:00,
2014-01-22 16:14:00,4.4,-4.5,29.87,NNE,16,7.0,7.0,66,0.00,,,0.00,16,Wunderground v.1.15,2014-01-22 21:14:00,
2014-01-22 16:24:00,4.2,-4.7,29.88,North,355,9.0,10.0,66,0.00,,,0.00,12,Wunderground v.1.15,2014-01-22 21:24:00,
2014-01-22 16:29:00,4.1,-4.4,29.88,NNW,333,9.0,10.0,67,0.00,,,0.00,12,Wunderground v.1.15,2014-01-22 21:29:00,
2014-01-22 16:39:00,3.9,-4.6,29.88,North,11,8.0,8.0,67,0.00,,,0.00,11,Wunderground v.1.15,2014-01-22 21:39:00,
2014-01-22 16:44:00,3.8,-4.7,29.87,NNW,333,9.0,14.0,67,0.00,,,0.00,9,Wunderground v.1.15,2014-01-22 21:44:00,
2014-01-22 16:49:00,3.7,-4.5,29.87,NNW,342,8.0,14.0,68,0.00,,,0.00,7,Wunderground v.1.15,2014-01-22 21:49:00,
2014-01-22 16:54:00,3.5,-4.7,29.88,NNW,340,7.0,8.0,68,0.00,,,0.00,5,Wunderground v.1.15,2014-01-22 21:54:00,
2014-01-22 16:59:00,3.4,-4.8,29.88,North,355,8.0,10.0,68,0.00,,,0.00,0,Wunderground v.1.15,2014-01-22 21:59:00,
2014-01-22 17:09:00,3.1,-4.8,29.88,NW,306,6.0,9.0,69,0.00,,,0.00,0,Wunderground v.1.15,2014-01-22 22:09:00,
2014-01-22 17:14:00,2.9,-5.0,29.89,NNW,342,5.0,7.0,69,0.00,,,0.00,0,Wunderground v.1.15,2014-01-22 22:14:00,
2014-01-22 17:24:00,2.8,-5.1,29.89,NNW,344,7.0,7.0,69,0.00,,,0.00,0,Wunderground v.1.15,2014-01-22 22:24:00,
2014-01-22 17:29:00,2.8,-4.8,29.89,NNW,334,7.0,10.0,70,0.00,,,0.00,0,Wunderground v.1.15,2014-01-22 22:29:00,
2014-01-22 17:39:00,2.7,-4.9,29.89,NNW,335,8.0,8.0,70,0.00,,,0.00,0,Wunderground v.1.15,2014-01-22 22:39:00,
2014-01-22 17:44:00,2.7,-4.9,29.90,NNW,348,8.0,12.0,70,0.00,,,0.00,0,Wunderground v.1.15,2014-01-22 22:44:00,
2014-01-22 17:49:00,2.8,-4.8,29.90,NW,311,8.0,12.0,70,0.00,,,0.00,0,Wunderground v.1.15,2014-01-22 22:49:00,
2014-01-22 17:59:00,2.9,-4.7,29.91,NNW,342,9.0,9.0,70,0.00,,,0.00,0,Wunderground v.1.15,2014-01-22 22:59:00,
2014-01-22 18:04:00,2.9,-4.7,29.91,North,360,9.0,9.0,70,0.00,,,0.00,0,Wunderground v.1.15,2014-01-22 23:04:00,
2014-01-22 18:09:00,3.0,-4.6,29.91,NNW,330,9.0,9.0,70,0.00,,,0.00,0,Wunderground v.1.15,2014-01-22 23:09:00,
2014-01-22 18:19:00,2.8,-4.8,29.91,North,355,9.0,10.0,70,0.00,,,0.00,0,Wunderground v.1.15,2014-01-22 23:19:00,
2014-01-22 18:29:00,2.5,-5.1,29.92,NW,325,8.0,11.0,70,0.00,,,0.00,0,Wunderground v.1.15,2014-01-22 23:29:00,
2014-01-22 18:34:00,2.4,-4.9,29.92,NNW,335,9.0,10.0,71,0.00,,,0.00,0,Wunderground v.1.15,2014-01-22 23:34:00,
2014-01-22 18:44:00,2.5,-4.8,29.92,NNE,29,10.0,10.0,71,0.00,,,0.00,0,Wunderground v.1.15,2014-01-22 23:44:00,
2014-01-22 18:49:00,2.6,-5.0,29.92,NNW,333,10.0,12.0,70,0.00,,,0.00,0,Wunderground v.1.15,2014-01-22 23:49:00,
2014-01-22 18:59:00,2.7,-4.9,29.92,North,349,11.0,11.0,70,0.00,,,0.00,0,Wunderground v.1.15,2014-01-22 23:59:00,
2014-01-22 19:04:00,2.7,-4.9,29.92,North,360,10.0,10.0,70,0.00,,,0.00,0,Wunderground v.1.15,2014-01-23 00:04:00,
2014-01-22 19:09:00,2.7,-4.6,29.93,NNE,24,10.0,10.0,71,0.00,,,0.00,0,Wunderground v.1.15,2014-01-23 00:09:00,
2014-01-22 19:14:00,2.8,-4.8,29.93,North,350,10.0,10.0,70,0.00,,,0.00,0,Wunderground v.1.15,2014-01-23 00:14:00,
2014-01-22 19:24:00,2.7,-4.6,29.93,North,360,9.0,13.0,71,0.00,,,0.00,0,Wunderground v.1.15,2014-01-23 00:24:00,
2014-01-22 19:34:00,2.7,-4.6,29.93,NW,324,10.0,10.0,71,0.00,,,0.00,0,Wunderground v.1.15,2014-01-23 00:34:00,
2014-01-22 19:39:00,2.6,-4.7,29.94,NNW,327,9.0,10.0,71,0.00,,,0.00,0,Wunderground v.1.15,2014-01-23 00:39:00,
2014-01-22 19:44:00,2.6,-4.7,29.94,North,360,9.0,13.0,71,0.00,,,0.00,0,Wunderground v.1.15,2014-01-23 00:44:00,
2014-01-22 19:54:00,2.4,-5.2,29.94,North,350,10.0,10.0,70,0.00,,,0.00,0,Wunderground v.1.15,2014-01-23 00:54:00,
2014-01-22 21:19:00,1.5,-5.7,29.96,NNE,19,9.0,12.0,71,0.00,,,0.00,0,Wunderground v.1.15,2014-01-23 02:19:00,
2014-01-22 21:24:00,1.4,-5.5,29.97,NNE,19,8.0,8.0,72,0.00,,,0.00,0,Wunderground v.1.15,2014-01-23 02:24:00,
2014-01-22 21:29:00,1.3,-5.6,29.97,NNE,17,7.0,8.0,72,0.00,,,0.00,0,Wunderground v.1.15,2014-01-23 02:29:00,
2014-01-22 21:34:00,1.3,-5.6,29.97,North,360,7.0,9.0,72,0.00,,,0.00,0,Wunderground v.1.15,2014-01-23 02:34:00,
2014-01-22 21:39:00,1.2,-5.7,29.97,NNW,333,7.0,9.0,72,0.00,,,0.00,0,Wunderground v.1.15,2014-01-23 02:39:00,
2014-01-22 21:49:00,1.2,-5.7,29.97,NNW,342,7.0,9.0,72,0.00,,,0.00,0,Wunderground v.1.15,2014-01-23 02:49:00,
2014-01-22 21:54:00,1.1,-5.8,29.97,NNW,342,6.0,6.0,72,0.00,,,0.00,0,Wunderground v.1.15,2014-01-23 02:54:00,
2014-01-22 21:59:00,1.1,-5.8,29.97,NNW,331,6.0,11.0,72,0.00,,,0.00,0,Wunderground v.1.15,2014-01-23 02:59:00,
2014-01-22 22:04:00,1.0,-5.9,29.97,NNW,329,7.0,7.0,72,0.00,,,0.00,0,Wunderground v.1.15,2014-01-23 03:04:00,
2014-01-22 22:14:00,0.9,-6.0,29.97,NNW,346,7.0,7.0,72,0.00,,,0.00,0,Wunderground v.1.15,2014-01-23 03:14:00,
2014-01-22 22:19:00,0.9,-6.0,29.97,NNE,26,6.0,7.0,72,0.00,,,0.00,0,Wunderground v.1.15,2014-01-23 03:19:00,
2014-01-22 22:24:00,0.8,-5.8,29.97,North,9,6.0,6.0,73,0.00,,,0.00,0,Wunderground v.1.15,2014-01-23 03:24:00,
2014-01-22 22:34:00,0.8,-5.8,29.97,NNE,13,7.0,9.0,73,0.00,,,0.00,0,Wunderground v.1.15,2014-01-23 03:34:00,
2014-01-22 22:39:00,0.8,-5.8,29.97,North,351,8.0,9.0,73,0.00,,,0.00,0,Wunderground v.1.15,2014-01-23 03:39:00,
2014-01-22 22:49:00,0.7,-5.9,29.98,NNW,346,9.0,10.0,73,0.00,,,0.00,0,Wunderground v.1.15,2014-01-23 03:49:00,
2014-01-22 22:54:00,0.7,-5.9,29.98,NNW,338,9.0,9.0,73,0.00,,,0.00,0,Wunderground v.1.15,2014-01-23 03:54:00,
2014-01-22 23:04:00,0.5,-6.1,29.99,North,5,7.0,7.0,73,0.00,,,0.00,0,Wunderground v.1.15,2014-01-23 04:04:00,
2014-01-22 23:09:00,0.4,-6.2,29.99,North,360,7.0,11.0,73,0.00,,,0.00,0,Wunderground v.1.15,2014-01-23 04:09:00,
2014-01-22 23:19:00,0.2,-6.4,29.99,NNW,332,7.0,9.0,73,0.00,,,0.00,0,Wunderground v.1.15,2014-01-23 04:19:00,
2014-01-22 23:24:00,0.2,-6.1,29.99,NNW,345,7.0,7.0,74,0.00,,,0.00,0,Wunderground v.1.15,2014-01-23 04:24:00,
2014-01-22 23:29:00,0.1,-6.2,29.99,NNW,329,7.0,8.0,74,0.00,,,0.00,0,Wunderground v.1.15,2014-01-23 04:29:00,
2014-01-22 23:34:00,0.1,-6.2,29.99,NW,319,7.0,7.0,74,0.00,,,0.00,0,Wunderground v.1.15,2014-01-23 04:34:00,
2014-01-22 23:44:00,-0.1,-6.4,29.99,NNW,348,6.0,6.0,74,0.00,,,0.00,0,Wunderground v.1.15,2014-01-23 04:44:00,
2014-01-22 23:49:00,-0.2,-6.5,29.99,North,349,6.0,6.0,74,0.00,,,0.00,0,Wunderground v.1.15,2014-01-23 04:49:00,
2014-01-22 23:59:00,-0.4,-6.7,29.99,NNW,338,6.0,9.0,74,0.00,,,0.00,0,Wunderground v.1.15,2014-01-23 04:59:00,